Time;durP1;ratioP1;P1;durP2;ratioP2;P2;SDS_P1;SDS_P2;PMS_P1;PMS_P2;Temp;Humidity;BMP_temperature;BMP_pressure;BME280_temperature;BME280_humidity;BME280_pressure;Samples;Min_cycle;Max_cycle;Signal;HPM_P1;HPM_P2
2021/01/23 00:00:10;;;;;;;39.70;23.87;;;;;;;0.58;85.25;99842.19;1791430;79;21130;-48
2021/01/23 00:02:40;;;;;;;43.20;23.35;;;;;;;0.59;85.25;99849.56;1781386;78;22693;-48
2021/01/23 00:05:10;;;;;;;40.12;22.10;;;;;;;0.59;85.33;99838.66;1802854;78;21180;-48
2021/01/23 00:07:38;;;;;;;39.78;23.22;;;;;;;0.62;85.28;99842.04;1778680;79;21129;-48
2021/01/23 00:10:07;;;;;;;40.92;23.75;;;;;;;0.61;85.23;99833.84;1780235;78;21149;-48
2021/01/23 00:12:34;;;;;;;42.23;23.52;;;;;;;0.60;85.19;99835.62;1781235;79;22071;-48
2021/01/23 00:15:05;;;;;;;41.75;24.27;;;;;;;0.60;85.25;99838.22;1793780;79;21126;-48
2021/01/23 00:17:33;;;;;;;46.98;23.50;;;;;;;0.62;85.16;99838.13;1795144;78;22156;-48
2021/01/23 00:20:02;;;;;;;40.67;22.82;;;;;;;0.63;85.15;99845.03;1790479;78;21007;-48
2021/01/23 00:22:30;;;;;;;37.55;21.17;;;;;;;0.65;85.13;99853.61;1790798;78;21120;-48
2021/01/23 00:24:57;;;;;;;39.10;23.45;;;;;;;;;;1793103;78;21906;-48
2021/01/23 00:27:25;;;;;;;38.42;23.05;;;;;;;0.65;85.18;99844.05;1797360;78;21190;-48
2021/01/23 00:29:52;;;;;;;37.58;21.77;;;;;;;0.63;85.33;99838.07;1794371;78;22102;-48
2021/01/23 00:32:20;;;;;;;37.88;22.30;;;;;;;0.65;85.39;99840.14;1800126;78;21130;-48
2021/01/23 00:34:48;;;;;;;42.78;22.60;;;;;;;0.66;85.30;99844.88;1791174;78;21137;-47
2021/01/23 00:37:16;;;;;;;35.65;21.45;;;;;;;0.64;85.22;99838.45;1797831;78;21150;-48
2021/01/23 00:39:43;;;;;;;37.98;22.13;;;;;;;0.62;85.29;99840.30;1799523;79;21152;-48
2021/01/23 00:42:11;;;;;;;38.80;22.42;;;;;;;0.61;85.30;99842.52;1783548;78;22117;-48
2021/01/23 00:44:40;;;;;;;39.55;22.87;;;;;;;0.58;85.33;99841.36;1781754;78;21133;-48
2021/01/23 00:47:08;;;;;;;39.60;23.52;;;;;;;0.57;85.37;99834.47;1781979;78;21117;-48
2021/01/23 00:49:36;;;;;;;38.20;22.07;;;;;;;0.55;85.46;99821.98;1818405;77;21904;-48
2021/01/23 00:52:04;;;;;;;40.33;23.12;;;;;;;0.56;85.63;99826.27;1809722;77;21142;-48
2021/01/23 00:54:32;;;;;;;36.55;21.25;;;;;;;0.55;85.57;99841.04;1806137;77;22049;-48
2021/01/23 00:57:00;;;;;;;38.73;22.62;;;;;;;0.54;85.57;99832.02;1795920;79;21125;-48
2021/01/23 00:59:27;;;;;;;41.08;22.50;;;;;;;0.53;85.53;99829.85;1785362;78;21134;-47
2021/01/23 01:01:55;;;;;;;38.25;21.75;;;;;;;0.52;85.44;99826.04;1760267;78;21162;-47
2021/01/23 01:04:25;;;;;;;38.65;21.62;;;;;;;0.50;85.47;99825.27;1787484;79;21397;-47
2021/01/23 01:06:53;;;;;;;38.78;21.45;;;;;;;0.50;85.57;99823.97;1788972;78;21601;-48
2021/01/23 01:09:21;;;;;;;37.63;22.00;;;;;;;0.50;85.58;99830.48;1814556;77;21117;-47
2021/01/23 01:11:48;;;;;;;35.60;20.40;;;;;;;0.49;85.53;99825.75;1799293;79;21097;-47
2021/01/23 01:14:16;;;;;;;36.73;21.25;;;;;;;0.49;85.46;99820.98;1777013;79;21442;-47
2021/01/23 01:16:44;;;;;;;38.00;21.95;;;;;;;0.47;85.51;99818.91;1787904;78;21184;-48
2021/01/23 01:19:12;;;;;;;37.25;21.35;;;;;;;0.49;85.50;99828.80;1815333;77;21130;-48
2021/01/23 01:21:41;;;;;;;35.28;21.55;;;;;;;0.48;85.44;99831.88;1788262;79;21133;-47
2021/01/23 01:24:09;;;;;;;37.13;22.20;;;;;;;0.47;85.37;99828.88;1792473;79;21175;-48
2021/01/23 01:26:38;;;;;;;35.35;19.35;;;;;;;0.47;85.24;99831.48;1786918;78;21109;-48
2021/01/23 01:29:05;;;;;;;36.55;20.90;;;;;;;0.47;85.20;99833.23;1781765;78;21173;-48
2021/01/23 01:31:33;;;;;;;37.65;20.37;;;;;;;0.43;85.08;99838.59;1785044;78;21006;-48
2021/01/23 01:34:01;;;;;;;33.10;20.12;;;;;;;0.40;84.99;99843.95;1786332;78;21601;-48
2021/01/23 01:36:29;;;;;;;31.77;20.12;;;;;;;0.39;85.10;99839.66;1809858;77;22022;-48
2021/01/23 01:38:57;;;;;;;31.68;17.50;;;;;;;0.36;85.15;99837.20;1817661;77;21116;-48
2021/01/23 01:41:24;;;;;;;37.08;20.72;;;;;;;0.35;85.31;99835.52;1811872;77;21227;-48
2021/01/23 01:43:52;;;;;;;35.45;20.23;;;;;;;0.31;85.37;99832.68;1819148;77;22248;-48
2021/01/23 01:46:20;;;;;;;32.73;20.30;;;;;;;0.29;85.49;99825.41;1798185;79;21109;-48
2021/01/23 01:48:49;;;;;;;33.00;19.75;;;;;;;0.27;85.54;99817.69;1744774;79;21121;-51
2021/01/23 01:51:16;;;;;;;35.40;20.82;;;;;;;0.27;85.73;99818.13;1814776;77;21129;-49
2021/01/23 01:53:44;;;;;;;33.20;20.15;;;;;;;0.26;85.81;99815.14;1810994;77;21340;-49
2021/01/23 01:56:12;;;;;;;34.15;19.70;;;;;;;0.26;85.81;99820.34;1812253;77;20975;-49
2021/01/23 01:58:40;;;;;;;30.68;18.92;;;;;;;0.26;85.81;99821.65;1783327;79;21121;-48
2021/01/23 02:01:08;;;;;;;31.15;18.92;;;;;;;0.27;85.77;99818.98;1811818;77;21133;-47
2021/01/23 02:03:50;;;;;;;33.65;21.33;;;;;;;0.25;85.79;99818.66;1792487;78;21153;-47
2021/01/23 02:06:52;;;;;;;37.10;21.55;;;;;;;0.24;85.74;99820.44;1811579;77;22063;-48
2021/01/23 02:09:45;;;;;;;36.88;21.20;;;;;;;0.23;85.81;99821.35;1798639;77;20998;-48
2021/01/23 02:12:24;;;;;;;35.70;20.75;;;;;;;0.22;85.87;99830.52;1809035;77;21872;-48
2021/01/23 02:15:05;;;;;;;33.35;19.52;;;;;;;0.25;86.00;99829.07;1782094;79;21105;-48
2021/01/23 02:17:45;;;;;;;32.83;19.50;;;;;;;0.30;85.99;99829.69;1782650;79;21097;-48
2021/01/23 02:20:44;;;;;;;34.95;19.25;;;;;;;0.32;85.90;99821.34;1784360;78;21157;-48
2021/01/23 02:23:28;;;;;;;33.95;20.12;;;;;;;0.34;85.90;99819.98;1780008;78;21916;-48
2021/01/23 02:26:20;;;;;;;36.00;21.37;;;;;;;0.33;85.90;99816.53;1814033;77;20999;-47
2021/01/23 02:29:24;;;;;;;34.30;19.90;;;;;;;0.33;85.89;99816.53;1816577;77;20983;-48
2021/01/23 02:31:54;;;;;;;33.88;18.80;;;;;;;0.33;85.90;99812.63;1812939;77;21971;-48
2021/01/23 02:34:24;;;;;;;36.53;19.62;;;;;;;0.34;85.88;99813.48;1784843;79;22615;-48
2021/01/23 02:36:53;;;;;;;35.05;20.62;;;;;;;0.34;85.88;99822.12;1785117;78;21615;-48
2021/01/23 02:39:21;;;;;;;37.85;21.45;;;;;;;0.35;85.78;99818.59;1771163;78;21466;-48
2021/01/23 02:41:50;;;;;;;37.65;22.15;;;;;;;0.38;85.80;99825.43;1743518;79;21129;-48
2021/01/23 02:44:19;;;;;;;39.00;21.75;;;;;;;0.41;85.69;99830.48;1779246;78;21094;-48
2021/01/23 02:46:50;;;;;;;37.75;21.62;;;;;;;0.42;85.39;99843.42;1807626;77;21188;-47
2021/01/23 02:49:18;;;;;;;33.65;20.40;;;;;;;0.41;85.14;99843.03;1821559;77;20987;-48
2021/01/23 02:52:20;;;;;;;37.63;20.37;;;;;;;0.38;84.98;99831.94;1809328;77;21995;-48
2021/01/23 02:55:03;;;;;;;37.25;20.05;;;;;;;;;;1813639;77;20983;-48
2021/01/23 02:57:31;;;;;;;34.70;20.00;;;;;;;0.26;85.29;99834.66;1772975;79;20994;-48
2021/01/23 03:00:03;;;;;;;34.30;17.45;;;;;;;0.24;85.41;99849.51;1785446;78;21270;-48
2021/01/23 03:02:31;;;;;;;36.42;21.02;;;;;;;0.25;85.48;99842.09;1820989;77;21134;-48
2021/01/23 03:04:59;;;;;;;36.38;21.17;;;;;;;0.23;85.41;99853.89;1817347;77;21121;-48
2021/01/23 03:07:26;;;;;;;40.38;20.62;;;;;;;0.21;85.26;99849.22;1799913;79;22217;-47
2021/01/23 03:09:54;;;;;;;34.45;19.80;;;;;;;0.18;85.17;99848.50;1786809;78;21150;-48
2021/01/23 03:12:21;;;;;;;41.33;19.87;;;;;;;0.09;85.24;99845.42;1793812;78;21265;-47
2021/01/23 03:14:49;;;;;;;33.33;19.12;;;;;;;0.03;85.47;99844.41;1790954;78;21133;-48
2021/01/23 03:17:17;;;;;;;32.58;19.15;;;;;;;0.00;85.70;99843.28;1793354;78;21917;-48
2021/01/23 03:19:45;;;;;;;33.13;19.52;;;;;;;-0.01;85.82;99832.48;1794212;78;21141;-48
2021/01/23 03:22:12;;;;;;;33.35;18.77;;;;;;;-0.02;85.86;99844.64;1801843;78;21154;-48
2021/01/23 03:24:40;;;;;;;34.48;19.87;;;;;;;-0.01;85.93;99859.81;1790770;79;21202;-48
2021/01/23 03:27:08;;;;;;;38.85;20.48;;;;;;;0.01;85.89;99857.13;1788535;78;21153;-48
2021/01/23 03:29:36;;;;;;;32.98;19.07;;;;;;;-0.01;85.69;99851.53;1788532;79;21114;-48
2021/01/23 03:32:04;;;;;;;38.42;21.05;;;;;;;0.00;85.67;99847.19;1781949;78;21113;-48
2021/01/23 03:34:32;;;;;;;37.42;20.55;;;;;;;-0.02;85.56;99856.83;1814210;77;21641;-48
2021/01/23 03:37:00;;;;;;;31.07;18.45;;;;;;;-0.04;85.53;99845.64;1811874;77;21379;-48
2021/01/23 03:39:27;;;;;;;34.67;19.40;;;;;;;-0.05;85.63;99843.48;1810526;77;21034;-48
2021/01/23 03:41:55;;;;;;;47.90;22.58;;;;;;;-0.05;85.70;99849.16;1820198;77;21117;-48
2021/01/23 03:44:22;;;;;;;37.20;21.07;;;;;;;-0.08;85.71;99845.41;1821930;77;22264;-48
2021/01/23 03:46:50;;;;;;;34.75;20.12;;;;;;;-0.14;85.80;99835.28;1811389;77;21105;-48
2021/01/23 03:49:18;;;;;;;36.53;20.08;;;;;;;-0.18;86.02;99843.67;1810927;77;21349;-48
2021/01/23 03:51:46;;;;;;;31.15;18.77;;;;;;;-0.18;86.16;99839.77;1816996;77;22069;-48
2021/01/23 03:54:14;;;;;;;35.73;19.87;;;;;;;-0.17;86.21;99842.31;1815966;77;20998;-48
2021/01/23 03:56:41;;;;;;;31.87;17.82;;;;;;;-0.16;86.16;99839.23;1817031;77;21106;-48
2021/01/23 03:59:09;;;;;;;32.50;20.30;;;;;;;-0.17;86.13;99835.80;1809059;77;21153;-48
2021/01/23 04:01:37;;;;;;;31.80;19.10;;;;;;;-0.18;86.08;99839.32;1783309;79;21693;-47
2021/01/23 04:04:04;;;;;;;32.63;18.82;;;;;;;-0.19;86.10;99840.68;1787893;78;21907;-48
2021/01/23 04:06:32;;;;;;;35.35;19.62;;;;;;;-0.21;86.13;99838.61;1808012;77;21500;-47
2021/01/23 04:09:00;;;;;;;34.50;19.30;;;;;;;-0.22;86.21;99842.98;1802466;79;21102;-47
2021/01/23 04:11:27;;;;;;;35.35;19.00;;;;;;;-0.23;86.21;99841.30;1788328;78;21149;-47
2021/01/23 04:13:55;;;;;;;32.63;20.15;;;;;;;-0.23;86.17;99838.69;1791105;79;22075;-47
2021/01/23 04:16:23;;;;;;;33.67;19.80;;;;;;;-0.25;86.21;99849.63;1792463;78;21121;-48
2021/01/23 04:18:50;;;;;;;35.17;20.95;;;;;;;-0.20;86.30;99852.00;1817934;77;21105;-47
2021/01/23 04:21:18;;;;;;;35.30;19.82;;;;;;;-0.19;86.00;99849.34;1791940;78;20995;-47
2021/01/23 04:23:46;;;;;;;37.88;21.60;;;;;;;-0.18;85.88;99851.03;1796534;78;21432;-47
2021/01/23 04:26:13;;;;;;;36.15;20.17;;;;;;;-0.18;85.73;99843.22;1794257;78;22156;-47
2021/01/23 04:28:42;;;;;;;32.17;18.32;;;;;;;-0.21;85.75;99840.77;1792031;78;21133;-47
2021/01/23 04:31:10;;;;;;;38.92;19.82;;;;;;;-0.22;85.94;99845.58;1797547;78;21010;-47
2021/01/23 04:33:38;;;;;;;34.00;19.20;;;;;;;-0.22;86.07;99846.02;1790901;78;21118;-48
2021/01/23 04:36:07;;;;;;;33.88;20.30;;;;;;;-0.20;86.09;99838.55;1792270;78;22135;-47
2021/01/23 04:38:34;;;;;;;35.05;20.90;;;;;;;-0.18;86.06;99838.46;1782372;79;21188;-47
2021/01/23 04:41:02;;;;;;;37.17;19.95;;;;;;;-0.17;86.03;99842.31;1793205;78;21586;-48
2021/01/23 04:43:30;;;;;;;31.57;18.85;;;;;;;-0.16;86.02;99846.59;1785887;79;21109;-48
2021/01/23 04:45:58;;;;;;;31.85;19.17;;;;;;;-0.12;85.90;99841.25;1786396;78;21133;-48
2021/01/23 04:48:26;;;;;;;34.05;19.30;;;;;;;-0.14;85.76;99833.98;1782181;78;21141;-47
2021/01/23 04:50:54;;;;;;;35.92;19.60;;;;;;;-0.18;85.85;99837.16;1796853;79;22317;-48
2021/01/23 04:53:22;;;;;;;33.38;19.55;;;;;;;-0.21;85.92;99836.86;1793888;78;21137;-47
2021/01/23 04:55:49;;;;;;;34.78;20.15;;;;;;;-0.23;85.97;99846.49;1802798;78;21117;-47
2021/01/23 04:58:17;;;;;;;32.98;19.50;;;;;;;-0.20;86.01;99848.09;1798082;78;21145;-47
2021/01/23 05:00:45;;;;;;;32.48;18.95;;;;;;;-0.19;85.95;99842.84;1792626;79;21141;-47
2021/01/23 05:03:12;;;;;;;36.73;19.90;;;;;;;-0.18;85.73;99840.63;1796592;78;21183;-48
2021/01/23 05:05:42;;;;;;;33.23;19.45;;;;;;;-0.22;85.58;99842.98;1787960;78;22211;-47
2021/01/23 05:08:12;;;;;;;34.58;19.17;;;;;;;-0.23;85.61;99840.44;1807437;77;21137;-47
2021/01/23 05:10:42;;;;;;;33.30;18.82;;;;;;;-0.25;85.65;99844.42;1816867;77;21125;-47
2021/01/23 05:13:14;;;;;;;36.25;19.48;;;;;;;-0.26;85.61;99852.28;1792453;79;21593;-47
2021/01/23 05:15:43;;;;;;;36.05;20.30;;;;;;;-0.29;85.36;99851.98;1785410;78;21418;-47
2021/01/23 05:18:13;;;;;;;33.10;19.40;;;;;;;-0.31;85.32;99848.60;1810434;77;21130;-48
2021/01/23 05:20:48;;;;;;;35.98;21.25;;;;;;;-0.34;85.34;99848.74;1814264;77;21934;-48
2021/01/23 05:23:27;;;;;;;30.25;18.00;;;;;;;-0.35;85.17;99850.95;1807500;78;22137;-48
2021/01/23 05:25:58;;;;;;;34.35;18.55;;;;;;;-0.39;85.26;99850.70;1812532;77;21575;-48
2021/01/23 05:28:38;;;;;;;32.78;19.10;;;;;;;-0.43;85.41;99841.36;1807186;77;27037;-48
2021/01/23 05:31:16;;;;;;;36.30;20.52;;;;;;;-0.47;85.65;99851.04;1810021;77;21502;-48
2021/01/23 05:33:44;;;;;;;34.83;20.02;;;;;;;-0.50;85.73;99845.53;1786956;77;21145;-48
2021/01/23 05:36:13;;;;;;;38.50;21.30;;;;;;;-0.52;85.77;99851.26;1817328;77;21110;-48
2021/01/23 05:38:45;;;;;;;33.50;19.98;;;;;;;-0.51;85.77;99850.79;1813302;77;21157;-49
2021/01/23 05:41:14;;;;;;;33.75;19.75;;;;;;;-0.50;85.79;99857.67;1817074;77;21370;-48
2021/01/23 05:43:45;;;;;;;36.05;21.45;;;;;;;-0.50;85.84;99857.23;1807560;77;21134;-48
2021/01/23 05:46:29;;;;;;;37.78;21.48;;;;;;;-0.46;85.91;99864.42;1796818;78;21431;-48
2021/01/23 05:48:57;;;;;;;38.65;21.20;;;;;;;-0.42;85.76;99862.08;1794111;78;21129;-48
2021/01/23 05:51:25;;;;;;;33.60;19.00;;;;;;;-0.37;85.49;99872.29;1788879;79;21141;-49
2021/01/23 05:53:52;;;;;;;33.45;19.82;;;;;;;-0.30;85.46;99878.42;1799452;78;21587;-48
2021/01/23 05:56:21;;;;;;;39.05;21.90;;;;;;;-0.18;85.50;99878.78;1793045;78;21622;-48
2021/01/23 05:58:49;;;;;;;41.75;22.42;;;;;;;-0.10;85.12;99875.84;1778466;78;21132;-48
2021/01/23 06:03:59;;;;;;;37.50;20.57;;;;;;;-0.01;84.77;99872.82;1870064;75;22851;-48
2021/01/23 06:06:46;;;;;;;37.35;21.85;;;;;;;0.01;84.73;99876.64;1835161;77;21509;-48
2021/01/23 06:09:40;;;;;;;37.80;21.82;;;;;;;-0.02;84.31;99878.47;1839593;77;21197;-48
2021/01/23 06:12:36;;;;;;;34.85;19.55;;;;;;;0.03;84.15;99890.42;1794726;78;22271;-48
2021/01/23 06:15:29;;;;;;;35.63;20.48;;;;;;;0.08;84.12;99895.78;1799391;78;21223;-47
2021/01/23 06:17:57;;;;;;;36.93;20.70;;;;;;;0.11;84.04;99894.81;1789884;78;22005;-47
2021/01/23 06:20:46;;;;;;;33.48;20.08;;;;;;;0.14;83.93;99902.00;1800757;77;21042;-48
2021/01/23 06:23:16;;;;;;;31.30;19.77;;;;;;;0.29;84.39;99900.45;1801700;78;21265;-48
2021/01/23 06:25:55;;;;;;;32.78;18.25;;;;;;;0.53;84.36;99893.66;1796425;78;21097;-47
2021/01/23 06:28:32;;;;;;;32.48;18.10;;;;;;;0.75;84.01;99899.60;1794175;78;21621;-48
2021/01/23 06:31:20;;;;;;;34.23;18.87;;;;;;;0.94;82.85;99903.42;1799660;78;21228;-48
2021/01/23 06:33:49;;;;;;;30.05;18.20;;;;;;;1.06;82.30;99900.20;1768914;78;21140;-49
2021/01/23 06:36:18;;;;;;;32.80;19.17;;;;;;;1.22;81.77;99904.17;1797715;77;21364;-48
2021/01/23 06:39:08;;;;;;;32.50;19.07;;;;;;;1.26;80.77;99906.17;1797887;78;22462;-48
2021/01/23 06:41:37;;;;;;;32.83;19.30;;;;;;;1.22;79.97;99915.91;1798465;78;21192;-47
2021/01/23 06:44:21;;;;;;;33.28;20.00;;;;;;;1.16;80.12;99902.73;1798651;78;21160;-48
2021/01/23 06:46:54;;;;;;;37.15;19.30;;;;;;;1.21;80.51;99910.30;1800082;77;22480;-48
2021/01/23 06:49:23;;;;;;;35.73;20.62;;;;;;;1.28;80.11;99910.37;1798974;77;22618;-48
2021/01/23 06:51:50;;;;;;;35.10;20.50;;;;;;;1.39;80.17;99911.14;1804339;78;21093;-48
2021/01/23 06:54:20;;;;;;;36.20;21.07;;;;;;;1.53;79.66;99899.98;1770377;79;21573;-48
2021/01/23 06:56:52;;;;;;;40.38;22.48;;;;;;;1.65;79.21;99905.00;1801829;78;21114;-48
2021/01/23 06:59:28;;;;;;;36.10;21.80;;;;;;;1.71;78.52;99902.54;1802870;78;20969;-48
2021/01/23 07:02:10;;;;;;;36.10;20.27;;;;;;;1.72;78.69;99903.75;1803948;77;21196;-46
2021/01/23 07:04:46;;;;;;;35.85;20.35;;;;;;;1.83;78.53;99904.50;1821884;78;21991;-48
2021/01/23 07:07:14;;;;;;;35.92;20.95;;;;;;;1.98;78.34;99891.06;1823133;76;20998;-47
2021/01/23 07:09:52;;;;;;;33.67;21.45;;;;;;;2.12;77.89;99895.52;1794344;78;20990;-47
2021/01/23 07:12:43;;;;;;;39.58;22.50;;;;;;;2.27;77.76;99899.07;1818821;78;21604;-47
2021/01/23 07:15:16;;;;;;;42.27;24.30;;;;;;;2.43;77.12;99891.69;1821983;78;21450;-47
2021/01/23 07:17:45;;;;;;;40.75;23.45;;;;;;;2.45;76.37;99889.34;1817635;76;21137;-48
2021/01/23 07:20:18;;;;;;;36.40;21.55;;;;;;;2.47;76.00;99879.66;1822540;78;20963;-48
2021/01/23 07:22:46;;;;;;;30.35;19.25;;;;;;;2.50;76.03;99880.78;1821034;78;21967;-48
2021/01/23 07:25:15;;;;;;;32.85;20.20;;;;;;;2.58;75.79;99886.05;1822238;78;21103;-47
2021/01/23 07:27:44;;;;;;;37.13;22.22;;;;;;;2.56;75.74;99889.20;1798363;79;22042;-49
2021/01/23 07:30:17;;;;;;;31.87;21.37;;;;;;;2.55;75.95;99893.61;1792521;79;21899;-49
2021/01/23 07:32:46;;;;;;;35.60;20.50;;;;;;;2.60;75.55;99885.49;1798952;79;22018;-48
2021/01/23 07:35:15;;;;;;;36.83;21.55;;;;;;;2.63;75.25;99897.08;1795810;79;21141;-48
2021/01/23 07:37:51;;;;;;;34.83;21.70;;;;;;;2.63;75.14;99911.00;1795712;79;21113;-49
2021/01/23 07:40:27;;;;;;;41.35;23.90;;;;;;;2.63;75.24;99919.29;1796675;79;21376;-48
2021/01/23 07:43:03;;;;;;;32.67;21.25;;;;;;;2.69;75.58;99918.94;1799443;79;21145;-48
2021/01/23 07:45:31;;;;;;;39.80;23.15;;;;;;;2.84;75.54;99922.44;1757291;81;21994;-48
2021/01/23 07:48:02;;;;;;;34.45;20.55;;;;;;;2.93;74.61;99914.06;1801041;79;21108;-48
2021/01/23 07:50:42;;;;;;;35.52;21.70;;;;;;;2.88;74.07;99917.89;1755564;81;21123;-47
2021/01/23 07:53:23;;;;;;;35.20;22.35;;;;;;;2.79;74.51;99914.88;1784717;79;21654;-48
2021/01/23 07:55:53;;;;;;;36.98;20.92;;;;;;;2.79;74.58;99919.24;1795558;79;21092;-48
2021/01/23 07:58:21;;;;;;;37.90;22.90;;;;;;;2.83;74.62;99922.53;1757151;79;21003;-48
2021/01/23 08:00:49;;;;;;;39.10;22.58;;;;;;;2.87;74.87;99926.66;1799517;79;21133;-48
2021/01/23 08:03:17;;;;;;;37.65;24.15;;;;;;;2.94;74.28;99932.74;1758366;80;21928;-48
2021/01/23 08:05:51;;;;;;;40.67;22.05;;;;;;;2.96;74.06;99930.05;1759951;79;21389;-48
2021/01/23 08:08:31;;;;;;;37.93;23.05;;;;;;;2.99;74.03;99929.02;1797533;79;20995;-48
2021/01/23 08:10:59;;;;;;;41.73;24.07;;;;;;;3.03;74.29;99928.77;1795269;79;21141;-49
2021/01/23 08:13:31;;;;;;;33.05;21.82;;;;;;;3.17;74.15;99934.97;1799415;79;21129;-47
2021/01/23 08:16:15;;;;;;;44.08;22.32;;;;;;;3.29;73.59;99928.16;1795337;79;22054;-48
2021/01/23 08:18:43;;;;;;;38.95;22.60;;;;;;;3.37;73.40;99933.78;1796148;78;21141;-48
2021/01/23 08:21:20;;;;;;;39.33;23.15;;;;;;;3.45;72.97;99926.31;1798007;78;21002;-48
2021/01/23 08:23:49;;;;;;;39.38;23.40;;;;;;;3.51;72.79;99928.56;1800890;79;22067;-48
2021/01/23 08:26:18;;;;;;;36.93;22.00;;;;;;;3.56;72.07;99925.66;1795922;79;20983;-48
2021/01/23 08:28:47;;;;;;;39.42;23.70;;;;;;;3.50;71.79;99928.64;1802065;79;22073;-48
2021/01/23 08:31:21;;;;;;;39.63;24.10;;;;;;;3.44;71.95;99944.70;1794185;79;21379;-48
2021/01/23 08:33:54;;;;;;;43.60;24.52;;;;;;;3.39;72.48;99943.20;1797795;79;21019;-48
2021/01/23 08:36:24;;;;;;;40.45;21.85;;;;;;;3.46;72.50;99942.84;1798730;79;20947;-48
2021/01/23 08:39:02;;;;;;;35.35;23.15;;;;;;;3.57;72.41;99941.73;1800825;79;22032;-47
2021/01/23 08:41:31;;;;;;;39.67;23.57;;;;;;;3.64;72.25;99940.42;1796004;79;22136;-47
2021/01/23 08:43:59;;;;;;;44.03;24.52;;;;;;;3.71;71.98;99933.52;1795683;79;21236;-47
2021/01/23 08:46:27;;;;;;;45.98;27.98;;;;;;;3.74;71.35;99925.47;1794341;79;21626;-48
2021/01/23 08:48:56;;;;;;;46.48;26.77;;;;;;;3.68;71.53;99922.77;1795449;79;20975;-48
2021/01/23 08:51:24;;;;;;;43.95;26.60;;;;;;;3.67;71.43;99914.55;1800446;79;21101;-48
2021/01/23 08:53:52;;;;;;;51.28;28.47;;;;;;;3.67;71.23;99904.08;1797489;79;21082;-48
2021/01/23 08:56:19;;;;;;;43.38;26.37;;;;;;;3.63;71.60;99906.02;1799394;79;22128;-48
2021/01/23 08:58:47;;;;;;;44.13;27.37;;;;;;;3.63;71.71;99907.33;1797141;79;21134;-48
2021/01/23 09:01:15;;;;;;;50.15;29.25;;;;;;;3.65;71.62;99910.70;1799409;79;20971;-48
2021/01/23 09:03:43;;;;;;;43.00;26.93;;;;;;;3.64;71.65;99909.02;1798332;79;21579;-48
2021/01/23 09:06:11;;;;;;;50.30;29.52;;;;;;;3.65;71.68;99901.53;1795553;79;21141;-48
2021/01/23 09:08:39;;;;;;;49.80;29.23;;;;;;;3.63;71.45;99906.02;1801815;79;21365;-48
2021/01/23 09:11:06;;;;;;;50.12;29.40;;;;;;;3.57;71.55;99909.02;1802041;79;21527;-48
2021/01/23 09:13:34;;;;;;;48.73;30.35;;;;;;;3.54;71.84;99910.51;1799370;79;20975;-48
2021/01/23 09:16:02;;;;;;;50.00;28.10;;;;;;;3.57;71.80;99914.73;1797294;79;21483;-48
2021/01/23 09:18:32;;;;;;;44.75;26.25;;;;;;;3.61;71.87;99907.06;1791943;79;20960;-48
2021/01/23 09:21:00;;;;;;;43.42;26.57;;;;;;;3.63;71.83;99907.33;1794507;79;23014;-48
2021/01/23 09:23:27;;;;;;;43.52;24.07;;;;;;;3.68;71.78;99901.84;1794846;79;20961;-48
2021/01/23 09:25:55;;;;;;;43.80;27.32;;;;;;;3.67;71.60;99904.91;1793789;79;20991;-48
2021/01/23 09:28:25;;;;;;;36.17;23.95;;;;;;;3.68;71.59;99901.84;1795946;79;21397;-48
2021/01/23 09:30:52;;;;;;;44.60;24.87;;;;;;;3.76;71.80;99898.73;1796915;79;22021;-48
2021/01/23 09:33:20;;;;;;;55.50;34.15;;;;;;;3.84;71.21;99896.00;1796407;79;21384;-48
2021/01/23 09:35:48;;;;;;;39.45;26.00;;;;;;;3.84;71.12;99893.38;1793043;79;21010;-48
2021/01/23 09:38:16;;;;;;;40.25;26.17;;;;;;;3.83;71.28;99889.56;1789941;79;20971;-48
2021/01/23 09:40:45;;;;;;;42.48;25.32;;;;;;;3.82;71.02;99887.88;1795945;79;21150;-48
2021/01/23 09:43:13;;;;;;;55.20;34.38;;;;;;;3.77;71.06;99883.39;1794207;78;21072;-48
2021/01/23 09:45:41;;;;;;;49.42;29.65;;;;;;;3.75;71.52;99883.48;1794815;79;21170;-48
2021/01/23 09:48:09;;;;;;;48.05;28.50;;;;;;;3.85;71.47;99896.85;1798602;79;20996;-48
2021/01/23 09:50:38;;;;;;;49.20;29.25;;;;;;;3.90;71.21;99889.55;1794304;79;20983;-48
2021/01/23 09:53:07;;;;;;;43.48;27.32;;;;;;;3.91;71.01;99884.69;1794908;79;21129;-48
2021/01/23 09:55:35;;;;;;;44.98;27.55;;;;;;;3.92;70.98;99888.13;1789092;79;20987;-48
2021/01/23 09:58:03;;;;;;;52.27;28.02;;;;;;;3.91;70.86;99889.92;1791036;79;21188;-48
2021/01/23 10:00:30;;;;;;;53.68;28.83;;;;;;;3.89;71.10;99898.80;1795404;79;20959;-48
2021/01/23 10:02:59;;;;;;;51.15;27.20;;;;;;;3.88;71.26;99905.83;1792939;79;20997;-49
2021/01/23 10:05:27;;;;;;;48.87;26.45;;;;;;;3.91;71.02;99908.26;1794134;79;21972;-48
2021/01/23 10:07:55;;;;;;;46.30;26.80;;;;;;;3.91;71.14;99913.95;1794905;79;21097;-47
2021/01/23 10:10:24;;;;;;;42.78;27.50;;;;;;;3.94;71.57;99913.76;1798477;79;21360;-48
2021/01/23 10:12:52;;;;;;;43.75;26.05;;;;;;;4.05;70.92;99909.17;1791977;78;21139;-48
2021/01/23 10:15:20;;;;;;;45.60;27.77;;;;;;;4.05;70.95;99910.48;1793544;79;21605;-48
2021/01/23 10:17:48;;;;;;;54.55;30.95;;;;;;;4.09;71.01;99909.36;1794854;79;21105;-48
2021/01/23 10:20:15;;;;;;;46.53;26.37;;;;;;;4.12;70.76;99910.47;1784929;79;21105;-48
2021/01/23 10:22:43;;;;;;;49.33;28.42;;;;;;;4.16;70.56;99905.41;1795788;79;21353;-48
2021/01/23 10:25:13;;;;;;;43.38;25.70;;;;;;;4.17;70.18;99903.16;1794572;79;21671;-47
2021/01/23 10:27:42;;;;;;;42.40;26.35;;;;;;;4.12;70.44;99899.51;1795332;79;21322;-48
2021/01/23 10:30:12;;;;;;;43.13;26.77;;;;;;;4.09;70.64;99906.25;1734515;81;20998;-47
2021/01/23 10:32:40;;;;;;;45.55;26.55;;;;;;;4.09;70.61;99902.33;1762484;80;21165;-48
2021/01/23 10:35:09;;;;;;;42.73;26.12;;;;;;;4.09;70.62;99902.80;1762708;80;21383;-48
2021/01/23 10:37:37;;;;;;;43.10;25.27;;;;;;;4.09;70.86;99900.19;1755405;80;21165;-48
2021/01/23 10:40:06;;;;;;;44.40;26.37;;;;;;;4.16;70.84;99894.94;1763114;80;20990;-47
2021/01/23 10:42:35;;;;;;;49.60;31.02;;;;;;;4.26;70.60;99892.55;1779818;80;22140;-48
2021/01/23 10:45:04;;;;;;;52.23;30.88;;;;;;;4.33;70.41;99889.05;1799561;79;21138;-48
2021/01/23 10:47:32;;;;;;;68.67;33.80;;;;;;;4.41;70.37;99885.02;1795242;79;22883;-47
2021/01/23 10:50:02;;;;;;;74.30;37.08;;;;;;;4.44;70.05;99877.41;1795715;79;20991;-48
2021/01/23 10:52:30;;;;;;;91.25;41.88;;;;;;;4.39;70.08;99882.11;1794393;79;21404;-48
2021/01/23 10:54:59;;;;;;;88.90;42.48;;;;;;;4.34;70.31;99883.73;1801222;79;21945;-47
2021/01/23 10:57:27;;;;;;;95.17;42.15;;;;;;;4.33;70.44;99878.13;1801142;79;21377;-48
2021/01/23 10:59:55;;;;;;;94.35;42.27;;;;;;;4.39;70.52;99879.03;1772099;79;22192;-48
2021/01/23 11:02:23;;;;;;;93.07;42.88;;;;;;;4.40;70.10;99883.80;1796822;79;21142;-47
2021/01/23 11:04:51;;;;;;;94.15;42.70;;;;;;;4.39;69.91;99875.56;1791184;79;21140;-47
2021/01/23 11:07:18;;;;;;;87.90;41.65;;;;;;;4.41;70.39;99879.78;1750865;81;21093;-47
2021/01/23 11:09:46;;;;;;;79.30;37.95;;;;;;;4.47;70.30;99869.35;1766075;80;21107;-47
2021/01/23 11:12:16;;;;;;;79.82;38.88;;;;;;;4.52;69.82;99869.89;1764784;78;21270;-47
2021/01/23 11:14:43;;;;;;;80.53;38.92;;;;;;;4.51;69.88;99859.04;1757423;80;21148;-48
2021/01/23 11:17:12;;;;;;;88.55;40.65;;;;;;;4.52;69.72;99868.58;1760133;78;21147;-48
2021/01/23 11:19:39;;;;;;;88.30;43.25;;;;;;;4.49;69.73;99858.30;1739095;81;21121;-47
2021/01/23 11:22:07;;;;;;;95.53;42.48;;;;;;;4.45;69.86;99848.13;1738286;80;21117;-47
2021/01/23 11:24:35;;;;;;;68.17;33.63;;;;;;;4.44;70.13;99843.34;1734446;80;22160;-47
2021/01/23 11:27:03;;;;;;;78.17;36.88;;;;;;;4.48;69.91;99842.69;1758585;80;21577;-47
2021/01/23 11:29:35;;;;;;;75.17;36.83;;;;;;;4.47;69.86;99836.59;1758075;80;21134;-47
2021/01/23 11:32:03;;;;;;;82.42;38.78;;;;;;;4.50;70.15;99830.33;1758893;80;21599;-48
2021/01/23 11:34:31;;;;;;;77.90;35.85;;;;;;;4.58;69.95;99836.73;1757497;80;21883;-48
2021/01/23 11:36:58;;;;;;;86.25;37.23;;;;;;;4.62;69.91;99836.52;1794561;79;21212;-48
2021/01/23 11:39:27;;;;;;;87.33;35.05;;;;;;;4.65;69.77;99844.19;1794395;79;21135;-48
2021/01/23 11:41:54;;;;;;;76.55;34.05;;;;;;;4.69;69.76;99850.91;1793101;79;21894;-48